Time;durP1;ratioP1;P1;durP2;ratioP2;P2;SDS_P1;SDS_P2;PMS_P1;PMS_P2;Temp;Humidity;BMP_temperature;BMP_pressure;BME280_temperature;BME280_humidity;BME280_pressure;Samples;Min_cycle;Max_cycle;Signal;HPM_P1;HPM_P2
2021/09/07 00:03:54;;;;;;;9.68;6.47;;;15.70;99.90;;;;;;12513610;28;20106;-36
2021/09/07 00:09:56;;;;;;;9.80;6.05;;;15.60;99.90;;;;;;12512501;28;20300;-37
2021/09/07 00:15:58;;;;;;;9.55;5.50;;;15.40;99.90;;;;;;12509977;28;20056;-37
2021/09/07 00:22:00;;;;;;;9.27;5.97;;;15.30;99.90;;;;;;12501671;28;20459;-37
2021/09/07 00:28:02;;;;;;;8.90;5.80;;;15.20;99.90;;;;;;12504999;28;20140;-37
2021/09/07 00:34:10;;;;;;;9.15;6.13;;;15.20;99.90;;;;;;12509680;28;20385;-36
2021/09/07 00:40:15;;;;;;;10.40;5.70;;;15.20;99.90;;;;;;12505925;28;20059;-36
2021/09/07 00:46:17;;;;;;;9.20;5.45;;;15.20;99.90;;;;;;12506634;28;20136;-37
2021/09/07 00:52:19;;;;;;;9.52;5.78;;;15.20;99.90;;;;;;12507673;28;20061;-36
2021/09/07 00:58:21;;;;;;;12.00;5.65;;;15.10;99.90;;;;;;12509309;28;20476;-36
2021/09/07 01:04:23;;;;;;;9.85;5.22;;;15.10;99.90;;;;;;12506971;28;20131;-37
2021/09/07 01:10:25;;;;;;;11.15;5.28;;;15.10;99.90;;;;;;12508480;28;20557;-36
2021/09/07 01:16:27;;;;;;;9.15;5.05;;;15.00;99.90;;;;;;12506816;28;20088;-37
2021/09/07 01:22:29;;;;;;;8.25;5.30;;;15.00;99.90;;;;;;12507660;28;20081;-37
2021/09/07 01:28:32;;;;;;;9.68;5.90;;;15.00;99.90;;;;;;12508717;28;20087;-39
2021/09/07 01:34:35;;;;;;;8.75;5.72;;;15.00;99.90;;;;;;12507822;28;20056;-38
2021/09/07 01:40:37;;;;;;;12.52;6.90;;;15.10;99.90;;;;;;12508300;28;20041;-37
2021/09/07 01:46:42;;;;;;;11.73;6.93;;;15.20;99.90;;;;;;12506027;28;20375;-38
2021/09/07 01:52:44;;;;;;;11.77;6.80;;;15.00;99.90;;;;;;12507246;28;20088;-37
2021/09/07 01:58:46;;;;;;;6.75;4.40;;;14.90;99.90;;;;;;12510355;28;20061;-39
2021/09/07 02:04:48;;;;;;;9.10;5.53;;;14.70;99.90;;;;;;12510535;28;20053;-37
2021/09/07 02:10:49;;;;;;;7.88;4.70;;;14.70;99.90;;;;;;12487937;28;20107;-37
2021/09/07 02:16:51;;;;;;;10.35;5.05;;;14.80;99.90;;;;;;12504595;28;20118;-37
2021/09/07 02:22:53;;;;;;;7.85;3.97;;;14.80;99.90;;;;;;12502597;28;20136;-37
2021/09/07 02:28:55;;;;;;;12.30;5.07;;;14.80;99.90;;;;;;12484604;28;20057;-37
2021/09/07 02:34:57;;;;;;;8.23;4.70;;;14.30;99.90;;;;;;12504374;28;21300;-37
2021/09/07 02:40:59;;;;;;;9.65;5.57;;;13.90;99.90;;;;;;12506341;28;20073;-37
2021/09/07 02:47:01;;;;;;;9.35;5.28;;;14.00;99.90;;;;;;12506262;28;20061;-38
2021/09/07 02:53:03;;;;;;;8.98;5.80;;;14.20;99.90;;;;;;12504513;28;20508;-38
2021/09/07 02:59:09;;;;;;;9.02;5.68;;;14.20;99.90;;;;;;12503894;28;20493;-36
2021/09/07 03:05:13;;;;;;;9.88;5.10;;;14.20;99.90;;;;;;12514428;28;20049;-38
2021/09/07 03:11:15;;;;;;;8.43;4.82;;;14.20;99.90;;;;;;12515704;28;20080;-36
2021/09/07 03:17:17;;;;;;;8.20;4.25;;;14.20;99.90;;;;;;12516302;28;20139;-36
2021/09/07 03:23:19;;;;;;;7.68;4.75;;;14.20;99.90;;;;;;12516437;28;20178;-39
2021/09/07 03:29:21;;;;;;;8.43;4.47;;;14.10;99.90;;;;;;12518249;28;20818;-36
2021/09/07 03:35:24;;;;;;;7.30;4.20;;;13.90;99.90;;;;;;12515199;28;20099;-37
2021/09/07 03:41:26;;;;;;;7.88;4.32;;;13.90;99.90;;;;;;12516037;28;20048;-37
2021/09/07 03:47:28;;;;;;;6.82;4.20;;;13.90;99.90;;;;;;12509811;28;20052;-37
2021/09/07 03:53:31;;;;;;;7.55;4.07;;;13.90;99.90;;;;;;12512792;28;20467;-37
2021/09/07 03:59:33;;;;;;;11.52;4.55;;;13.90;99.90;;;;;;12494990;28;20623;-36
2021/09/07 04:05:35;;;;;;;6.30;3.55;;;13.90;99.90;;;;;;12511278;28;20122;-37
2021/09/07 04:11:39;;;;;;;7.72;3.63;;;14.00;99.90;;;;;;12490530;28;20053;-37
2021/09/07 04:17:41;;;;;;;6.65;3.40;;;14.00;99.90;;;;;;12508793;28;20467;-37
2021/09/07 04:23:43;;;;;;;9.45;3.50;;;13.90;99.90;;;;;;12508194;28;20069;-37
2021/09/07 04:29:45;;;;;;;8.10;4.13;;;13.90;99.90;;;;;;12513503;28;20621;-37
2021/09/07 04:35:47;;;;;;;7.50;4.20;;;13.60;99.90;;;;;;12508633;28;20127;-37
2021/09/07 04:41:50;;;;;;;12.05;5.10;;;13.60;99.90;;;;;;12513417;28;20074;-38
2021/09/07 04:47:52;;;;;;;8.68;4.85;;;13.70;99.90;;;;;;12510439;28;20049;-37
2021/09/07 04:53:56;;;;;;;15.27;4.80;;;13.80;99.90;;;;;;12506153;28;20049;-37
2021/09/07 04:59:57;;;;;;;8.43;4.60;;;13.80;99.90;;;;;;12505806;28;20615;-37
2021/09/07 05:06:02;;;;;;;8.98;5.15;;;13.90;99.90;;;;;;12490129;28;20048;-37
2021/09/07 05:12:04;;;;;;;8.88;5.22;;;13.80;99.90;;;;;;12499582;28;20044;-37
2021/09/07 05:18:06;;;;;;;9.20;5.50;;;13.90;99.90;;;;;;12507591;28;20136;-37
2021/09/07 05:24:09;;;;;;;9.30;6.00;;;13.90;99.90;;;;;;12505835;28;20083;-36
2021/09/07 05:30:11;;;;;;;13.40;5.40;;;13.90;99.90;;;;;;12501755;28;20052;-39
2021/09/07 05:36:13;;;;;;;13.98;5.35;;;13.90;99.90;;;;;;12506293;28;20057;-37
2021/09/07 05:42:15;;;;;;;11.65;6.88;;;14.00;99.90;;;;;;12508454;28;21212;-37
2021/09/07 05:48:17;;;;;;;11.07;6.22;;;14.00;99.90;;;;;;12500195;28;20053;-37
2021/09/07 05:54:19;;;;;;;13.93;8.20;;;14.10;99.90;;;;;;12502162;28;20049;-37
2021/09/07 06:00:21;;;;;;;13.25;8.07;;;14.20;99.90;;;;;;12504274;28;20053;-37
2021/09/07 06:06:24;;;;;;;17.27;9.23;;;14.30;99.90;;;;;;12505533;28;20124;-37
2021/09/07 06:12:26;;;;;;;15.25;8.30;;;14.30;99.90;;;;;;12499845;28;20063;-38
2021/09/07 06:18:29;;;;;;;17.02;9.13;;;14.50;99.90;;;;;;12504619;28;20052;-37
2021/09/07 06:24:31;;;;;;;14.45;9.43;;;14.50;99.90;;;;;;12503896;28;20061;-37
2021/09/07 06:30:33;;;;;;;18.58;8.98;;;14.60;99.90;;;;;;12502766;28;20439;-40
2021/09/07 06:36:35;;;;;;;15.57;8.57;;;14.60;99.90;;;;;;12507068;28;20198;-37
2021/09/07 06:42:36;;;;;;;15.27;8.73;;;14.90;99.90;;;;;;12515427;28;20044;-37
2021/09/07 06:48:38;;;;;;;15.82;9.80;;;15.00;99.90;;;;;;12513328;28;20048;-38
2021/09/07 06:54:41;;;;;;;14.57;9.40;;;15.00;99.90;;;;;;12515335;28;20045;-37
2021/09/07 07:00:45;;;;;;;12.70;8.82;;;15.10;99.90;;;;;;12516015;28;20103;-37
2021/09/07 07:06:47;;;;;;;14.70;7.68;;;15.30;99.90;;;;;;12511919;28;20046;-39
2021/09/07 07:12:49;;;;;;;10.13;7.22;;;15.50;99.90;;;;;;12512166;28;20053;-37
2021/09/07 07:18:51;;;;;;;12.52;7.63;;;15.70;99.90;;;;;;12508690;28;20068;-37
2021/09/07 07:24:53;;;;;;;14.80;7.95;;;15.60;99.90;;;;;;12506721;28;20143;-37
2021/09/07 07:30:55;;;;;;;12.13;7.13;;;15.60;99.90;;;;;;12511448;28;20643;-37
2021/09/07 07:36:57;;;;;;;12.30;7.75;;;15.80;99.90;;;;;;12512377;28;20087;-39
2021/09/07 07:43:00;;;;;;;11.18;7.47;;;15.90;99.90;;;;;;12512217;28;20169;-37
2021/09/07 07:49:03;;;;;;;13.70;7.75;;;16.10;99.90;;;;;;12506529;28;20072;-37
2021/09/07 07:55:05;;;;;;;13.75;6.70;;;16.10;99.90;;;;;;12508186;28;20091;-39
2021/09/07 08:01:07;;;;;;;12.10;7.05;;;16.20;99.90;;;;;;12507348;28;20094;-37
2021/09/07 08:07:09;;;;;;;6.93;5.05;;;16.30;99.90;;;;;;12507437;28;20159;-37
2021/09/07 08:13:11;;;;;;;12.93;6.78;;;16.60;99.90;;;;;;12513925;28;20262;-39
2021/09/07 08:19:19;;;;;;;10.93;6.63;;;16.80;99.90;;;;;;12512099;28;20069;-38
2021/09/07 08:25:21;;;;;;;13.15;6.22;;;17.00;99.90;;;;;;12510818;28;20068;-38
2021/09/07 08:31:24;;;;;;;9.20;5.28;;;17.10;99.90;;;;;;12510500;28;20578;-39
2021/09/07 08:37:26;;;;;;;7.43;5.32;;;17.30;99.90;;;;;;12511779;28;20130;-38
2021/09/07 08:43:28;;;;;;;8.75;4.57;;;17.50;99.90;;;;;;12495397;28;20041;-38
2021/09/07 08:49:38;;;;;;;7.70;5.00;;;17.70;99.90;;;;;;12510439;28;20045;-37
2021/09/07 08:55:40;;;;;;;8.13;4.15;;;17.80;99.90;;;;;;12508647;28;20363;-37
2021/09/07 09:01:52;;;;;;;5.20;3.22;;;18.20;99.90;;;;;;12512285;28;20049;-39
2021/09/07 09:07:55;;;;;;;7.38;3.78;;;18.40;99.90;;;;;;12506963;28;20405;-38
2021/09/07 09:13:57;;;;;;;5.45;3.05;;;18.50;99.90;;;;;;12512951;28;20548;-38
2021/09/07 09:20:02;;;;;;;6.25;2.70;;;18.70;99.90;;;;;;12507698;28;20064;-38
2021/09/07 09:26:05;;;;;;;6.20;3.50;;;18.80;99.90;;;;;;12506249;28;20505;-37
2021/09/07 09:32:10;;;;;;;7.07;3.60;;;18.80;99.90;;;;;;12507252;28;20053;-38
2021/09/07 09:38:12;;;;;;;7.35;3.78;;;18.80;99.90;;;;;;12503574;28;20573;-37
2021/09/07 09:44:14;;;;;;;6.10;3.60;;;18.80;99.90;;;;;;12506034;28;20136;-37
2021/09/07 09:50:16;;;;;;;9.02;3.63;;;18.80;99.90;;;;;;12503247;28;20697;-39
2021/09/07 09:56:19;;;;;;;6.63;3.70;;;19.10;99.90;;;;;;12506341;28;20060;-38
2021/09/07 10:02:21;;;;;;;6.75;3.50;;;19.10;99.90;;;;;;12504632;28;20694;-39
2021/09/07 10:08:23;;;;;;;6.35;3.20;;;19.20;99.90;;;;;;12503409;28;20037;-38
2021/09/07 10:14:30;;;;;;;6.25;3.10;;;19.20;99.90;;;;;;12503252;28;20583;-38
2021/09/07 10:27:05;;;;;;;6.28;2.95;;;19.40;99.90;;;;;;12516278;28;20067;-39
2021/09/07 10:33:30;;;;;;;5.00;2.90;;;19.50;99.90;;;;;;12514232;28;20269;-37
2021/09/07 10:39:44;;;;;;;7.65;3.28;;;19.60;99.90;;;;;;12516292;28;20190;-38
2021/09/07 10:45:47;;;;;;;5.70;3.10;;;18.70;99.90;;;;;;12510704;28;20053;-38
2021/09/07 10:52:18;;;;;;;5.67;3.03;;;19.80;99.90;;;;;;12516664;28;20045;-40
2021/09/07 10:58:33;;;;;;;5.50;2.78;;;20.10;99.90;;;;;;12514727;28;20111;-37
2021/09/07 11:04:48;;;;;;;9.75;3.25;;;20.10;99.90;;;;;;12513144;28;20151;-38
2021/09/07 11:10:53;;;;;;;5.20;3.42;;;20.70;99.90;;;;;;12514621;28;20056;-38
2021/09/07 11:16:56;;;;;;;6.03;3.40;;;20.80;99.90;;;;;;12510142;28;20088;-38
2021/09/07 11:22:58;;;;;;;4.65;3.08;;;20.80;99.90;;;;;;12510650;28;20143;-38
2021/09/07 11:29:00;;;;;;;9.00;4.75;;;21.20;99.90;;;;;;12513893;28;20405;-40
2021/09/07 11:35:11;;;;;;;9.13;5.97;;;21.00;99.90;;;;;;12507499;28;20045;-39
2021/09/07 11:41:19;;;;;;;6.30;4.68;;;21.00;99.90;;;;;;12501695;28;20199;-37
2021/09/07 11:47:21;;;;;;;6.90;4.45;;;21.20;99.90;;;;;;12506620;28;20049;-38
2021/09/07 11:53:24;;;;;;;7.63;5.15;;;21.40;99.90;;;;;;12498350;28;20107;-38
2021/09/07 11:59:26;;;;;;;10.23;6.60;;;21.80;99.90;;;;;;12500828;28;20302;-37
2021/09/07 12:05:57;;;;;;;11.25;6.82;;;21.70;99.90;;;;;;12505620;28;20714;-39
2021/09/07 12:12:08;;;;;;;9.20;5.53;;;22.10;99.90;;;;;;12507564;28;20086;-38
2021/09/07 12:18:25;;;;;;;7.15;5.50;;;22.20;99.90;;;;;;12503575;28;20572;-39
2021/09/07 12:24:30;;;;;;;7.75;5.57;;;22.50;99.90;;;;;;12507599;28;20052;-38
2021/09/07 12:30:38;;;;;;;10.00;5.97;;;23.00;99.90;;;;;;12506016;28;20117;-41
2021/09/07 12:36:46;;;;;;;10.65;7.15;;;22.80;99.90;;;;;;12503784;28;20065;-39
2021/09/07 12:42:48;;;;;;;10.98;7.10;;;22.50;99.90;;;;;;12489000;28;20206;-38
2021/09/07 12:48:53;;;;;;;10.85;7.07;;;22.30;99.90;;;;;;12508117;28;20491;-39
2021/09/07 12:54:55;;;;;;;11.80;7.38;;;22.40;99.90;;;;;;12504047;28;20145;-37
2021/09/07 13:00:59;;;;;;;9.13;6.72;;;22.50;99.90;;;;;;12504061;28;20072;-39
2021/09/07 13:07:02;;;;;;;10.75;7.10;;;23.00;99.90;;;;;;12507889;28;20425;-40
2021/09/07 13:13:04;;;;;;;8.13;4.90;;;23.20;99.90;;;;;;12505251;28;20052;-41
2021/09/07 13:19:07;;;;;;;7.77;5.50;;;23.90;99.90;;;;;;12507778;28;20056;-38
2021/09/07 13:25:29;;;;;;;7.13;4.40;;;23.90;99.90;;;;;;12491344;28;20307;-38
2021/09/07 13:31:31;;;;;;;6.93;5.03;;;23.30;99.90;;;;;;12503294;28;20049;-41
2021/09/07 13:37:33;;;;;;;8.40;5.97;;;23.50;99.90;;;;;;12505938;28;20460;-40
2021/09/07 13:43:36;;;;;;;8.30;5.00;;;23.50;99.90;;;;;;12498550;28;20053;-38
2021/09/07 13:49:38;;;;;;;11.13;5.63;;;23.30;99.90;;;;;;12501748;28;20563;-38
2021/09/07 13:55:40;;;;;;;8.10;5.18;;;23.20;99.90;;;;;;12498710;28;20148;-38
2021/09/07 14:01:42;;;;;;;9.82;5.53;;;22.70;99.90;;;;;;12503030;28;20053;-40
2021/09/07 14:07:44;;;;;;;7.57;5.07;;;22.50;99.90;;;;;;12504735;28;20049;-38
2021/09/07 14:13:47;;;;;;;8.18;4.72;;;22.80;99.90;;;;;;12505039;28;20061;-40
2021/09/07 14:19:49;;;;;;;8.38;5.03;;;22.90;99.90;;;;;;12501601;28;20103;-40
2021/09/07 14:25:51;;;;;;;7.38;4.85;;;22.70;99.90;;;;;;12504609;28;20041;-39
2021/09/07 14:31:53;;;;;;;6.33;4.03;;;22.90;99.90;;;;;;12504143;28;20705;-39
2021/09/07 14:37:55;;;;;;;8.65;4.07;;;23.20;99.90;;;;;;12502602;28;20065;-39
2021/09/07 14:43:57;;;;;;;5.97;3.42;;;23.60;99.90;;;;;;12508385;28;20064;-38
2021/09/07 14:49:59;;;;;;;6.75;3.65;;;23.80;99.90;;;;;;12503313;28;20053;-39
2021/09/07 14:56:01;;;;;;;7.82;3.35;;;23.30;99.90;;;;;;12504716;28;20057;-41
2021/09/07 15:02:03;;;;;;;5.95;2.88;;;23.40;99.90;;;;;;12508682;28;20098;-38
2021/09/07 15:08:07;;;;;;;4.68;2.97;;;24.00;99.90;;;;;;12503206;28;20114;-38
2021/09/07 15:14:09;;;;;;;4.75;3.03;;;23.90;99.90;;;;;;12520219;28;20080;-39
2021/09/07 15:20:11;;;;;;;4.95;3.10;;;24.30;99.90;;;;;;12514962;28;20068;-38
2021/09/07 15:26:13;;;;;;;7.38;2.72;;;24.20;99.90;;;;;;12525265;28;20050;-39
2021/09/07 15:32:16;;;;;;;4.20;2.90;;;24.40;99.90;;;;;;12519391;28;20053;-38
2021/09/07 15:38:18;;;;;;;5.53;2.40;;;24.30;99.90;;;;;;12518160;28;20049;-38
2021/09/07 15:44:23;;;;;;;8.55;2.72;;;24.50;99.90;;;;;;12517477;28;20053;-39
2021/09/07 15:50:25;;;;;;;3.67;2.15;;;24.30;99.90;;;;;;12517983;28;20057;-40
2021/09/07 15:56:27;;;;;;;4.75;2.65;;;24.50;99.90;;;;;;12517144;28;20053;-38
2021/09/07 16:02:29;;;;;;;4.30;2.80;;;24.50;99.90;;;;;;12513410;28;20500;-39
2021/09/07 16:08:31;;;;;;;6.23;2.50;;;24.30;99.90;;;;;;12513957;28;20076;-40
2021/09/07 16:14:33;;;;;;;5.93;2.35;;;24.10;99.90;;;;;;12510016;28;21070;-38
2021/09/07 16:20:36;;;;;;;5.50;2.40;;;24.10;99.90;;;;;;12514784;28;20424;-38
2021/09/07 16:26:40;;;;;;;4.53;2.83;;;24.00;99.90;;;;;;12514775;28;20056;-38
2021/09/07 16:32:42;;;;;;;5.80;2.45;;;24.10;99.90;;;;;;12493585;28;20076;-38
2021/09/07 16:38:44;;;;;;;5.03;2.58;;;23.70;99.90;;;;;;12510261;28;20413;-38
2021/09/07 16:44:46;;;;;;;5.65;3.10;;;23.60;99.90;;;;;;12510523;28;20073;-39
2021/09/07 16:50:48;;;;;;;6.20;3.05;;;23.40;99.90;;;;;;12504419;28;20042;-38
2021/09/07 16:56:50;;;;;;;4.07;2.50;;;22.90;99.90;;;;;;12514152;28;20092;-39
2021/09/07 17:02:52;;;;;;;5.47;2.67;;;22.70;99.90;;;;;;12507757;28;20084;-39
2021/09/07 17:08:55;;;;;;;5.13;2.80;;;22.50;99.90;;;;;;12510054;28;20135;-38
2021/09/07 17:14:59;;;;;;;3.95;2.45;;;22.20;99.90;;;;;;12510804;28;20049;-38
2021/09/07 17:21:01;;;;;;;6.75;2.90;;;21.80;99.90;;;;;;12513767;28;20087;-38
2021/09/07 17:27:04;;;;;;;6.80;3.20;;;21.50;99.90;;;;;;12501754;28;20056;-39
2021/09/07 17:33:17;;;;;;;8.70;3.47;;;21.20;99.90;;;;;;12507175;28;20044;-39
2021/09/07 17:45:41;;;;;;;4.57;3.17;;;20.80;99.90;;;;;;12504968;28;20042;-38
2021/09/07 17:51:45;;;;;;;5.13;3.10;;;20.60;99.90;;;;;;12503401;28;20500;-38
2021/09/07 17:57:47;;;;;;;4.28;3.13;;;20.40;99.90;;;;;;12504739;28;20045;-38
2021/09/07 18:03:50;;;;;;;6.63;3.78;;;20.10;99.90;;;;;;12507325;28;20147;-37
2021/09/07 18:09:52;;;;;;;5.20;3.38;;;19.90;99.90;;;;;;12505834;28;20068;-38
2021/09/07 18:15:54;;;;;;;8.02;4.00;;;19.70;99.90;;;;;;12498893;28;20053;-38
2021/09/07 18:21:57;;;;;;;6.40;3.95;;;19.60;99.90;;;;;;12505762;28;20816;-38
2021/09/07 18:27:58;;;;;;;7.25;4.15;;;19.40;99.90;;;;;;12507063;28;20064;-38
2021/09/07 18:34:01;;;;;;;9.05;4.40;;;19.30;99.90;;;;;;12513220;28;20689;-38
2021/09/07 18:40:04;;;;;;;7.27;4.20;;;19.30;99.90;;;;;;12516923;28;20544;-38
2021/09/07 18:46:06;;;;;;;6.77;4.30;;;19.20;99.90;;;;;;12497547;28;20081;-39
2021/09/07 18:52:08;;;;;;;7.75;3.63;;;19.20;99.90;;;;;;12509383;28;20077;-38
2021/09/07 18:58:13;;;;;;;6.10;4.00;;;19.20;99.90;;;;;;12514892;28;20053;-39
2021/09/07 19:04:15;;;;;;;8.07;3.72;;;19.30;99.90;;;;;;12515708;28;20614;-37
2021/09/07 19:10:17;;;;;;;6.10;3.97;;;19.20;99.90;;;;;;12497613;28;20052;-37
2021/09/07 19:16:19;;;;;;;6.15;4.38;;;19.00;99.90;;;;;;12509677;28;20086;-38
2021/09/07 19:22:22;;;;;;;7.28;4.68;;;18.70;99.90;;;;;;12513428;28;20106;-37
2021/09/07 19:28:24;;;;;;;9.80;4.70;;;18.40;99.90;;;;;;12513976;28;20049;-40
2021/09/07 19:34:25;;;;;;;8.18;4.07;;;18.30;99.90;;;;;;12506332;28;20053;-37
2021/09/07 19:40:28;;;;;;;7.13;4.30;;;18.10;99.90;;;;;;12508552;28;20076;-38
2021/09/07 19:46:30;;;;;;;8.50;4.43;;;18.00;99.90;;;;;;12508725;28;20057;-39
2021/09/07 19:52:33;;;;;;;8.75;4.85;;;18.00;99.90;;;;;;12505315;28;20052;-39
2021/09/07 19:58:35;;;;;;;8.43;4.53;;;18.00;99.90;;;;;;12510910;28;20057;-37
2021/09/07 20:04:37;;;;;;;9.70;4.18;;;18.10;99.90;;;;;;12497306;28;20049;-38
2021/09/07 20:10:39;;;;;;;7.28;4.65;;;18.00;99.90;;;;;;12491023;28;20052;-38
2021/09/07 20:16:42;;;;;;;9.40;4.28;;;18.00;99.90;;;;;;12510287;28;20059;-38
2021/09/07 20:22:44;;;;;;;10.43;4.27;;;18.00;99.90;;;;;;12514589;28;20061;-37
2021/09/07 20:28:46;;;;;;;7.18;4.22;;;18.00;99.90;;;;;;12508084;28;20052;-38
2021/09/07 20:34:48;;;;;;;9.43;4.43;;;17.90;99.90;;;;;;12507878;28;20051;-38
2021/09/07 20:40:50;;;;;;;7.88;4.13;;;17.80;99.90;;;;;;12511995;28;20569;-38
2021/09/07 20:46:51;;;;;;;6.68;4.47;;;17.60;99.90;;;;;;12505667;28;20124;-38
2021/09/07 20:52:53;;;;;;;6.18;4.45;;;17.60;99.90;;;;;;12491196;28;20045;-38
2021/09/07 20:58:55;;;;;;;7.85;4.10;;;17.60;99.90;;;;;;12509252;28;20053;-37
2021/09/07 21:04:57;;;;;;;6.57;4.53;;;17.60;99.90;;;;;;12505479;28;20090;-38
2021/09/07 21:10:59;;;;;;;7.35;4.22;;;17.60;99.90;;;;;;12507699;28;20117;-39
2021/09/07 21:17:01;;;;;;;7.05;4.18;;;17.50;99.90;;;;;;12509238;28;20747;-38
2021/09/07 21:23:03;;;;;;;8.93;4.55;;;17.40;99.90;;;;;;12508216;28;20533;-39
2021/09/07 21:29:08;;;;;;;7.93;4.93;;;17.50;99.90;;;;;;12507204;28;20448;-38
2021/09/07 21:35:11;;;;;;;7.28;4.70;;;17.40;99.90;;;;;;12503158;28;20049;-38
2021/09/07 21:41:13;;;;;;;10.43;5.10;;;17.30;99.90;;;;;;12501888;28;20045;-38
2021/09/07 21:47:15;;;;;;;7.50;5.00;;;17.10;99.90;;;;;;12504521;28;20089;-37
2021/09/07 21:53:17;;;;;;;8.48;4.70;;;17.10;99.90;;;;;;12485703;28;20048;-37
2021/09/07 21:59:19;;;;;;;8.48;5.03;;;17.20;99.90;;;;;;12504363;28;20061;-39
2021/09/07 22:05:21;;;;;;;8.85;4.30;;;17.30;99.90;;;;;;12503383;28;20106;-37
2021/09/07 22:11:23;;;;;;;7.20;4.50;;;17.20;99.90;;;;;;12504016;28;20036;-37
2021/09/07 22:17:24;;;;;;;6.22;4.22;;;17.30;99.90;;;;;;12503745;28;20094;-38
2021/09/07 22:23:27;;;;;;;6.05;3.95;;;17.50;99.90;;;;;;12486722;28;20053;-37
2021/09/07 22:29:28;;;;;;;7.20;3.97;;;17.40;99.90;;;;;;12506982;28;20049;-37
2021/09/07 22:35:30;;;;;;;8.73;4.35;;;17.30;99.90;;;;;;12504353;28;20052;-40
2021/09/07 22:41:32;;;;;;;10.10;4.28;;;17.20;99.90;;;;;;12507176;28;20608;-37
2021/09/07 22:47:34;;;;;;;8.32;4.63;;;17.20;99.90;;;;;;12505081;28;20045;-38
2021/09/07 22:53:36;;;;;;;8.05;4.85;;;17.10;99.90;;;;;;12487142;28;20053;-38
2021/09/07 22:59:38;;;;;;;7.85;5.20;;;17.00;99.90;;;;;;12501366;28;20156;-37
2021/09/07 23:05:39;;;;;;;8.55;5.40;;;16.80;99.90;;;;;;12502801;28;20037;-37
2021/09/07 23:11:41;;;;;;;8.50;4.80;;;16.70;99.90;;;;;;12504137;28;20136;-37
2021/09/07 23:17:43;;;;;;;8.35;4.95;;;16.60;99.90;;;;;;12504473;28;20106;-37
2021/09/07 23:23:45;;;;;;;8.60;5.53;;;16.60;99.90;;;;;;12508222;28;20383;-37
2021/09/07 23:29:47;;;;;;;8.05;4.88;;;16.50;99.90;;;;;;12513037;28;20530;-37
2021/09/07 23:35:50;;;;;;;7.78;5.07;;;16.40;99.90;;;;;;12512161;28;20053;-37
2021/09/07 23:41:52;;;;;;;10.80;5.72;;;16.30;99.90;;;;;;12511517;28;20281;-38
2021/09/07 23:47:53;;;;;;;7.50;4.53;;;16.20;99.90;;;;;;12513012;28;20045;-37
2021/09/07 23:53:55;;;;;;;7.47;4.65;;;16.00;99.90;;;;;;12513659;28;20114;-37
2021/09/07 23:59:57;;;;;;;7.90;4.55;;;16.10;99.90;;;;;;12511665;28;20106;-38
